createdAt,value
2023-02-23T00:02:26.010Z,39.50
2023-02-23T00:04:55.508Z,40.42
2023-02-23T00:07:27.117Z,38.13
2023-02-23T00:09:57.011Z,40.47
2023-02-23T00:12:29.794Z,40.95
2023-02-23T00:14:59.748Z,39.03
2023-02-23T00:17:31.554Z,42.47
2023-02-23T00:20:01.813Z,43.65
2023-02-23T00:22:31.320Z,42.17
2023-02-23T00:25:01.327Z,46.20
2023-02-23T00:27:33.696Z,43.67
2023-02-23T00:30:04.003Z,40.45
2023-02-23T00:32:40.888Z,42.38
2023-02-23T00:35:17.392Z,42.15
2023-02-23T00:37:48.056Z,44.53
2023-02-23T00:40:18.091Z,44.13
2023-02-23T00:42:52.411Z,44.95
2023-02-23T00:45:21.896Z,44.90
2023-02-23T00:47:51.465Z,40.38
2023-02-23T00:50:21.332Z,39.10
2023-02-23T00:52:50.766Z,36.45
2023-02-23T00:55:20.374Z,36.38
2023-02-23T00:57:52.412Z,38.10
2023-02-23T01:00:22.372Z,39.50
2023-02-23T01:02:51.634Z,39.33
2023-02-23T01:05:22.234Z,41.47
2023-02-23T01:07:51.681Z,40.67
2023-02-23T01:10:24.474Z,37.58
2023-02-23T01:12:56.510Z,39.45
2023-02-23T01:15:27.744Z,40.40
2023-02-23T01:17:57.276Z,39.40
2023-02-23T01:20:27.485Z,40.25
2023-02-23T01:22:57.685Z,39.55
2023-02-23T01:25:29.183Z,38.63
2023-02-23T01:28:01.235Z,39.22
2023-02-23T01:30:30.902Z,40.45
2023-02-23T01:33:01.032Z,37.97
2023-02-23T01:35:30.703Z,38.78
2023-02-23T01:38:00.174Z,38.47
2023-02-23T01:40:31.441Z,39.42
2023-02-23T01:43:13.119Z,41.22
2023-02-23T01:45:42.697Z,40.45
2023-02-23T01:48:14.746Z,39.42
2023-02-23T01:50:47.392Z,40.20
2023-02-23T01:53:17.297Z,44.10
2023-02-23T01:55:47.136Z,40.42
2023-02-23T01:58:20.753Z,43.30
2023-02-23T02:00:51.432Z,46.83
2023-02-23T02:03:23.150Z,46.92
2023-02-23T02:05:52.727Z,45.67
2023-02-23T02:08:24.017Z,43.05
2023-02-23T02:10:56.079Z,46.33
2023-02-23T02:13:29.525Z,44.95
2023-02-23T02:16:13.209Z,47.25
2023-02-23T02:18:49.809Z,46.20
2023-02-23T02:21:42.881Z,44.25
2023-02-23T02:24:56.205Z,43.85
2023-02-23T02:27:32.984Z,48.50
2023-02-23T02:30:32.120Z,46.92
2023-02-23T02:33:32.794Z,49.65
2023-02-23T02:36:11.230Z,44.90
2023-02-23T02:38:53.614Z,45.30
2023-02-23T02:41:25.622Z,45.38
2023-02-23T02:43:58.210Z,48.25
2023-02-23T02:46:29.317Z,46.78
2023-02-23T02:51:31.197Z,48.92
2023-02-23T02:54:07.150Z,47.25
2023-02-23T02:56:40.685Z,48.17
2023-02-23T02:59:23.641Z,47.70
2023-02-23T03:02:05.583Z,47.90
2023-02-23T03:04:47.743Z,45.22
2023-02-23T03:07:31.990Z,48.35
2023-02-23T03:10:18.033Z,45.80
2023-02-23T03:13:04.572Z,46.53
2023-02-23T03:15:52.810Z,50.47
2023-02-23T03:18:46.997Z,54.03
2023-02-23T03:21:30.926Z,49.53
2023-02-23T03:24:16.991Z,52.63
2023-02-23T03:27:03.288Z,52.58
2023-02-23T03:29:47.394Z,48.95
2023-02-23T03:32:33.262Z,53.60
2023-02-23T03:35:17.086Z,51.03
2023-02-23T03:38:01.547Z,49.42
2023-02-23T03:40:46.800Z,50.95
2023-02-23T03:43:33.350Z,48.92
2023-02-23T03:46:15.313Z,46.10
2023-02-23T03:48:57.375Z,50.90
2023-02-23T03:51:39.992Z,49.53
2023-02-23T03:54:24.197Z,52.03
2023-02-23T03:57:06.807Z,50.05
2023-02-23T03:59:53.605Z,46.58
2023-02-23T04:02:35.652Z,52.47
2023-02-23T04:05:18.773Z,48.47
2023-02-23T04:08:01.192Z,49.15
2023-02-23T04:10:43.164Z,50.58
2023-02-23T04:13:14.644Z,49.08
2023-02-23T04:15:47.055Z,48.50
2023-02-23T04:18:17.622Z,46.30
2023-02-23T04:20:47.167Z,51.40
2023-02-23T04:23:16.637Z,50.63
2023-02-23T04:25:47.765Z,51.38
2023-02-23T04:28:17.445Z,52.25
2023-02-23T04:30:49.561Z,50.47
2023-02-23T04:33:19.090Z,51.47
2023-02-23T04:35:48.577Z,56.28
2023-02-23T04:38:18.056Z,60.53
2023-02-23T04:40:47.531Z,57.60
2023-02-23T04:43:17.073Z,57.88
2023-02-23T04:45:49.545Z,61.55
2023-02-23T04:48:19.083Z,56.00
2023-02-23T04:50:48.585Z,57.08
2023-02-23T04:53:18.089Z,58.72
2023-02-23T04:55:47.510Z,73.50
2023-02-23T04:58:17.019Z,63.97
2023-02-23T05:00:49.717Z,63.45
2023-02-23T05:03:19.402Z,65.57
2023-02-23T05:05:48.854Z,70.20
2023-02-23T05:08:18.331Z,63.63
2023-02-23T05:10:49.018Z,57.33
2023-02-23T05:13:18.470Z,55.85
2023-02-23T05:15:50.505Z,57.55
2023-02-23T05:18:20.115Z,60.83
2023-02-23T05:20:49.566Z,54.92
2023-02-23T05:23:19.038Z,61.20
2023-02-23T05:25:48.474Z,61.85
2023-02-23T05:28:17.979Z,61.22
2023-02-23T05:30:50.150Z,59.80
2023-02-23T05:33:19.984Z,71.97
2023-02-23T05:35:49.437Z,62.67
2023-02-23T05:38:20.065Z,64.10
2023-02-23T05:40:49.512Z,59.65
2023-02-23T05:43:18.973Z,61.47
2023-02-23T05:45:51.000Z,61.25
2023-02-23T05:48:20.523Z,60.65
2023-02-23T05:50:49.977Z,60.55
2023-02-23T05:53:19.430Z,63.38
2023-02-23T05:55:48.901Z,63.70
2023-02-23T05:58:18.876Z,61.83
2023-02-23T06:00:51.499Z,60.65
2023-02-23T06:03:22.668Z,58.00
2023-02-23T06:05:53.487Z,60.25
2023-02-23T06:08:23.051Z,60.83
2023-02-23T06:10:52.567Z,59.90
2023-02-23T06:13:22.184Z,58.80
2023-02-23T06:15:54.284Z,63.65
2023-02-23T06:18:24.014Z,57.45
2023-02-23T06:20:53.601Z,63.13
2023-02-23T06:23:23.041Z,66.28
2023-02-23T06:25:52.527Z,62.50
2023-02-23T06:28:22.079Z,61.17
2023-02-23T06:30:54.394Z,64.22
2023-02-23T06:33:24.185Z,61.88
2023-02-23T06:35:54.806Z,59.05
2023-02-23T06:38:24.393Z,57.20
2023-02-23T06:40:53.888Z,65.57
2023-02-23T06:43:23.541Z,55.42
2023-02-23T06:45:56.821Z,58.28
2023-02-23T06:48:26.331Z,60.38
2023-02-23T06:50:55.778Z,58.67
2023-02-23T06:53:25.306Z,61.22
2023-02-23T06:55:54.767Z,65.15
2023-02-23T06:58:24.272Z,60.25
2023-02-23T07:00:58.593Z,61.72
2023-02-23T07:03:28.309Z,61.83
2023-02-23T07:05:57.790Z,60.65
2023-02-23T07:08:27.278Z,50.33
2023-02-23T07:10:57.777Z,53.42
2023-02-23T07:13:27.246Z,60.70
2023-02-23T07:16:02.089Z,69.20
2023-02-23T07:18:31.606Z,73.68
2023-02-23T07:21:01.178Z,80.20
2023-02-23T07:23:30.861Z,77.50
2023-02-23T07:26:01.040Z,75.55
2023-02-23T07:28:30.501Z,75.90
2023-02-23T07:31:02.600Z,83.40
2023-02-23T07:33:32.629Z,74.03
2023-02-23T07:36:02.176Z,77.80
2023-02-23T07:38:31.650Z,73.47
2023-02-23T07:41:01.125Z,67.70
2023-02-23T07:43:30.629Z,71.55
2023-02-23T07:46:04.813Z,69.60
2023-02-23T07:48:34.694Z,69.72
2023-02-23T07:51:04.130Z,75.40
2023-02-23T07:53:33.644Z,71.28
2023-02-23T07:56:04.174Z,70.18
2023-02-23T07:58:34.705Z,69.38
2023-02-23T08:01:07.018Z,62.67
2023-02-23T08:03:36.528Z,61.78
2023-02-23T08:06:06.050Z,67.47
2023-02-23T08:08:36.140Z,67.47
2023-02-23T08:11:06.458Z,65.50
2023-02-23T08:13:37.238Z,65.67
2023-02-23T08:16:12.465Z,57.17
2023-02-23T08:18:42.091Z,56.50
2023-02-23T08:21:11.977Z,73.00
2023-02-23T08:23:41.443Z,68.10
2023-02-23T08:26:11.742Z,59.50
2023-02-23T08:28:41.889Z,57.25
2023-02-23T08:31:16.310Z,46.33
2023-02-23T08:33:45.863Z,47.22
2023-02-23T08:36:15.549Z,49.15
2023-02-23T08:38:45.172Z,44.50
2023-02-23T08:41:14.728Z,45.63
2023-02-23T08:43:44.257Z,48.80
2023-02-23T08:46:18.676Z,46.20
2023-02-23T08:48:48.350Z,45.53
2023-02-23T08:51:18.225Z,52.03
2023-02-23T08:53:47.942Z,58.47
2023-02-23T08:56:18.081Z,49.53
2023-02-23T08:58:47.555Z,51.73
2023-02-23T09:01:23.354Z,48.08
2023-02-23T09:03:52.906Z,46.90
2023-02-23T09:06:23.429Z,51.67
2023-02-23T09:08:53.820Z,51.08
2023-02-23T09:11:23.309Z,52.97
2023-02-23T09:13:53.051Z,55.60
2023-02-23T09:16:25.143Z,52.63
2023-02-23T09:18:54.692Z,48.17
2023-02-23T09:21:25.336Z,49.00
2023-02-23T09:23:56.286Z,47.00
2023-02-23T09:26:26.369Z,46.85
2023-02-23T09:28:55.840Z,49.83
2023-02-23T09:31:28.191Z,46.97
2023-02-23T09:33:57.686Z,46.42
2023-02-23T09:36:27.772Z,48.50
2023-02-23T09:38:58.023Z,48.65
2023-02-23T09:41:38.754Z,49.85
2023-02-23T09:44:12.053Z,51.97
2023-02-23T09:46:46.547Z,49.08
2023-02-23T09:49:17.816Z,51.83
2023-02-23T09:51:49.313Z,49.40
2023-02-23T09:54:19.127Z,48.10
2023-02-23T09:56:49.944Z,49.92
2023-02-23T09:59:20.276Z,50.40
2023-02-23T10:02:01.638Z,50.65
2023-02-23T10:04:32.737Z,50.88
2023-02-23T10:09:46.406Z,48.58
2023-02-23T10:12:19.631Z,49.53
2023-02-23T10:14:59.126Z,48.90
2023-02-23T10:17:35.453Z,49.85
2023-02-23T10:20:09.270Z,48.60
2023-02-23T10:22:38.875Z,47.00
2023-02-23T10:25:12.343Z,46.38
2023-02-23T10:27:43.698Z,49.38
2023-02-23T10:30:21.296Z,49.58
2023-02-23T10:32:56.320Z,49.13
2023-02-23T10:35:26.350Z,48.67
2023-02-23T10:37:55.915Z,46.45
2023-02-23T10:40:27.724Z,49.40
2023-02-23T10:42:57.482Z,43.22
2023-02-23T10:45:27.799Z,42.60
2023-02-23T10:48:01.163Z,40.87
2023-02-23T10:50:30.764Z,42.67
2023-02-23T10:53:01.542Z,41.83
2023-02-23T10:55:31.751Z,37.22
2023-02-23T10:58:09.600Z,37.53
2023-02-23T11:00:40.423Z,39.50
2023-02-23T11:03:25.502Z,37.08
2023-02-23T11:05:55.507Z,36.75
2023-02-23T11:08:29.347Z,34.03
2023-02-23T11:11:03.936Z,34.42
2023-02-23T11:13:38.234Z,31.10
2023-02-23T11:16:10.414Z,30.70
2023-02-23T11:18:43.558Z,30.83
2023-02-23T11:21:14.293Z,30.60
2023-02-23T11:23:43.872Z,30.10
2023-02-23T11:26:35.723Z,29.38
2023-02-23T11:29:11.173Z,28.45
2023-02-23T11:31:40.917Z,27.92
2023-02-23T11:34:20.207Z,31.08
2023-02-23T11:36:49.679Z,27.27
2023-02-23T11:39:23.649Z,28.27
2023-02-23T11:42:07.630Z,26.85
2023-02-23T11:44:37.094Z,25.10
2023-02-23T11:47:06.712Z,24.20
2023-02-23T11:49:39.543Z,25.50
2023-02-23T11:52:15.359Z,26.35
2023-02-23T11:54:44.848Z,24.35
2023-02-23T11:57:14.467Z,33.33
2023-02-23T11:59:43.939Z,34.17
2023-02-23T12:02:23.278Z,34.78
2023-02-23T12:04:56.347Z,32.50
2023-02-23T12:07:37.462Z,29.85
2023-02-23T12:10:10.001Z,24.42
2023-02-23T12:12:47.923Z,23.40
2023-02-23T12:15:22.822Z,26.83
2023-02-23T12:17:53.678Z,25.38
2023-02-23T12:20:27.408Z,25.50
2023-02-23T12:22:58.981Z,22.05
2023-02-23T12:25:30.220Z,22.98
2023-02-23T12:28:17.919Z,23.98
2023-02-23T12:30:50.018Z,22.55
2023-02-23T12:33:21.620Z,20.73
2023-02-23T12:35:57.290Z,22.20
2023-02-23T12:38:33.308Z,22.25
2023-02-23T12:41:06.290Z,21.10
2023-02-23T12:43:39.661Z,21.27
2023-02-23T12:46:12.594Z,17.10
2023-02-23T12:48:48.094Z,16.20
2023-02-23T12:51:25.565Z,14.07
2023-02-23T12:53:55.712Z,18.77
2023-02-23T12:56:47.201Z,14.80
2023-02-23T12:59:47.087Z,14.25
2023-02-23T13:02:18.121Z,16.58
2023-02-23T13:07:41.956Z,16.92
2023-02-23T13:10:17.241Z,17.02
2023-02-23T13:12:51.325Z,17.50
2023-02-23T13:15:26.966Z,16.23
2023-02-23T13:17:59.573Z,16.42
2023-02-23T13:20:33.756Z,18.23
2023-02-23T13:23:12.626Z,17.85
2023-02-23T13:25:45.929Z,17.73
2023-02-23T13:28:18.808Z,18.73
2023-02-23T13:30:48.810Z,20.67
2023-02-23T13:33:35.078Z,19.75
2023-02-23T13:36:08.780Z,17.70
2023-02-23T13:38:44.686Z,18.50
2023-02-23T13:41:17.908Z,21.83
2023-02-23T13:43:49.317Z,19.23
2023-02-23T13:46:24.440Z,19.80
2023-02-23T13:49:00.538Z,20.10
2023-02-23T13:51:35.538Z,18.73
2023-02-23T13:54:10.107Z,18.33
2023-02-23T13:56:44.688Z,20.50
2023-02-23T13:59:19.317Z,18.88
2023-02-23T14:01:50.374Z,18.58
2023-02-23T14:06:56.763Z,18.55
2023-02-23T14:09:31.856Z,18.33
2023-02-23T14:12:07.537Z,20.42
2023-02-23T14:14:47.741Z,17.67
2023-02-23T14:17:54.062Z,19.87
2023-02-23T14:20:30.076Z,19.77
2023-02-23T14:23:25.377Z,21.88
2023-02-23T14:26:12.870Z,22.52
2023-02-23T14:28:42.738Z,21.75
2023-02-23T14:31:22.611Z,19.83
2023-02-23T14:33:55.065Z,19.80
2023-02-23T14:36:40.749Z,21.92
2023-02-23T14:39:11.998Z,20.42
2023-02-23T14:41:50.183Z,21.40
2023-02-23T14:44:29.399Z,20.60
2023-02-23T14:47:03.122Z,19.55
2023-02-23T14:49:35.132Z,18.67
2023-02-23T14:52:08.919Z,21.17
2023-02-23T14:54:39.042Z,19.52
2023-02-23T14:57:20.391Z,20.03
2023-02-23T14:59:55.439Z,19.40
2023-02-23T15:02:25.782Z,18.48
2023-02-23T15:04:55.383Z,17.48
2023-02-23T15:07:28.974Z,17.75
2023-02-23T15:09:59.064Z,16.85
2023-02-23T15:12:31.987Z,16.30
2023-02-23T15:15:02.907Z,15.48
2023-02-23T15:17:35.102Z,13.27
2023-02-23T15:20:15.864Z,13.00
2023-02-23T15:22:46.841Z,14.07
2023-02-23T15:25:17.883Z,12.50
2023-02-23T15:30:27.635Z,13.52
2023-02-23T15:33:07.580Z,16.02
2023-02-23T15:35:45.127Z,13.68
2023-02-23T15:38:40.431Z,15.30
2023-02-23T15:41:05.646Z,14.43
2023-02-23T15:43:38.109Z,15.57
2023-02-23T15:46:08.048Z,14.88
2023-02-23T15:48:46.002Z,14.50
2023-02-23T15:51:24.526Z,14.98
2023-02-23T15:53:54.351Z,16.83
2023-02-23T15:56:26.454Z,14.63
2023-02-23T15:58:59.646Z,16.48
2023-02-23T16:01:30.404Z,15.90
2023-02-23T16:04:03.065Z,14.88
2023-02-23T16:06:36.501Z,17.70
2023-02-23T16:09:19.983Z,14.95
2023-02-23T16:11:51.986Z,14.93
2023-02-23T16:14:25.327Z,15.57
2023-02-23T16:17:10.491Z,16.85
2023-02-23T16:19:42.210Z,15.95
2023-02-23T16:22:19.161Z,17.38
2023-02-23T16:24:48.752Z,18.02
2023-02-23T16:27:20.239Z,17.90
2023-02-23T16:30:00.560Z,18.25
2023-02-23T16:32:36.578Z,16.63
2023-02-23T16:35:12.073Z,17.40
2023-02-23T16:37:53.073Z,18.25
2023-02-23T16:40:22.593Z,17.40
2023-02-23T16:42:54.002Z,19.35
2023-02-23T16:45:27.391Z,18.20
2023-02-23T16:48:02.077Z,17.23
2023-02-23T16:50:33.802Z,19.80
2023-02-23T16:53:03.638Z,21.30
2023-02-23T16:55:39.158Z,21.35
2023-02-23T16:58:11.829Z,20.83
2023-02-23T17:00:44.335Z,20.13
2023-02-23T17:03:20.353Z,21.00
2023-02-23T17:05:49.959Z,20.17
2023-02-23T17:08:20.331Z,20.35
2023-02-23T17:10:50.796Z,19.23
2023-02-23T17:13:21.883Z,21.60
2023-02-23T17:15:56.496Z,20.10
2023-02-23T17:18:27.245Z,19.63
2023-02-23T17:20:57.596Z,20.00
2023-02-23T17:23:28.088Z,20.43
2023-02-23T17:32:30.059Z,21.45
2023-02-23T17:35:02.212Z,20.38
2023-02-23T17:37:32.086Z,20.90
2023-02-23T17:40:01.532Z,21.13
2023-02-23T17:42:35.030Z,20.45
2023-02-23T17:45:04.920Z,21.73
2023-02-23T17:47:34.964Z,20.45
2023-02-23T17:50:07.569Z,20.77
2023-02-23T17:52:37.150Z,19.13
2023-02-23T17:55:06.962Z,18.65
2023-02-23T17:57:36.417Z,20.80
2023-02-23T18:00:07.120Z,18.88
2023-02-23T18:02:36.614Z,18.02
2023-02-23T18:05:09.178Z,20.17
2023-02-23T18:07:38.658Z,20.17
2023-02-23T18:10:08.935Z,21.63
2023-02-23T18:12:38.450Z,21.33
2023-02-23T18:15:08.281Z,22.05
2023-02-23T18:17:37.750Z,22.33
2023-02-23T18:20:14.950Z,22.38
2023-02-23T18:22:44.565Z,25.50
2023-02-23T18:25:22.484Z,26.45
2023-02-23T18:27:55.961Z,26.00
2023-02-23T18:30:27.119Z,26.33
2023-02-23T18:33:00.597Z,24.40
2023-02-23T18:35:36.108Z,28.52
2023-02-23T18:38:05.855Z,24.35
2023-02-23T18:40:35.324Z,25.50
2023-02-23T18:43:04.819Z,26.70
2023-02-23T18:45:34.246Z,25.35
2023-02-23T18:48:04.421Z,25.25
2023-02-23T18:50:36.809Z,26.97
2023-02-23T18:53:09.027Z,24.23
2023-02-23T18:55:39.323Z,22.63
2023-02-23T18:58:08.817Z,22.77
2023-02-23T19:00:42.798Z,22.70
2023-02-23T19:03:12.831Z,19.48
2023-02-23T19:05:53.268Z,19.65
2023-02-23T19:08:22.843Z,21.48
2023-02-23T19:10:52.595Z,19.58
2023-02-23T19:13:22.350Z,22.48
2023-02-23T19:15:53.373Z,20.05
2023-02-23T19:18:23.038Z,20.00
2023-02-23T19:20:57.011Z,20.67
2023-02-23T19:23:26.512Z,21.42
2023-02-23T19:25:55.973Z,23.95
2023-02-23T19:28:25.444Z,24.42
2023-02-23T19:31:03.959Z,24.05
2023-02-23T19:33:33.537Z,26.17
2023-02-23T19:36:07.483Z,29.85
2023-02-23T19:38:36.968Z,27.92
2023-02-23T19:41:08.016Z,30.75
2023-02-23T19:46:07.036Z,32.33
2023-02-23T19:48:36.550Z,30.90
2023-02-23T19:51:10.153Z,33.55
2023-02-23T19:53:39.972Z,32.10
2023-02-23T19:56:10.378Z,30.23
2023-02-23T19:58:43.050Z,32.97
2023-02-23T20:01:14.662Z,31.08
2023-02-23T20:03:45.495Z,32.90
2023-02-23T20:06:18.895Z,35.95
2023-02-23T20:08:48.912Z,31.42
2023-02-23T20:11:18.813Z,32.20
2023-02-23T20:13:50.892Z,35.08
2023-02-23T20:16:20.558Z,33.90
2023-02-23T20:18:50.058Z,36.80
2023-02-23T20:21:23.922Z,35.40
2023-02-23T20:23:53.657Z,35.03
2023-02-23T20:26:26.611Z,37.47
2023-02-23T20:28:56.167Z,35.17
2023-02-23T20:31:27.947Z,38.13
2023-02-23T20:33:57.886Z,37.03
2023-02-23T20:36:29.937Z,35.42
2023-02-23T20:38:59.169Z,37.80
2023-02-23T20:41:31.577Z,33.67
2023-02-23T20:44:01.392Z,38.03
2023-02-23T20:46:32.607Z,35.03
2023-02-23T20:49:03.715Z,34.83
2023-02-23T20:54:05.109Z,37.97
2023-02-23T20:56:34.749Z,37.00
2023-02-23T20:59:04.511Z,35.80
2023-02-23T21:01:34.175Z,38.20
2023-02-23T21:04:03.741Z,36.78
2023-02-23T21:06:35.778Z,36.40
2023-02-23T21:09:07.082Z,38.40
2023-02-23T21:11:36.560Z,40.85
2023-02-23T21:14:08.439Z,38.50
2023-02-23T21:16:41.725Z,39.05
2023-02-23T21:19:13.938Z,39.17
2023-02-23T21:21:47.818Z,41.92
2023-02-23T21:24:17.631Z,41.75
2023-02-23T21:26:48.018Z,39.35
2023-02-23T21:29:18.166Z,39.10
2023-02-23T21:31:48.976Z,42.00
2023-02-23T21:34:21.451Z,39.53
2023-02-23T21:36:53.674Z,42.42
2023-02-23T21:39:23.144Z,44.80
2023-02-23T21:41:52.687Z,44.00
2023-02-23T21:44:22.120Z,45.42
2023-02-23T21:46:52.060Z,42.10
2023-02-23T21:49:21.939Z,38.42
2023-02-23T21:51:55.252Z,41.15
2023-02-23T21:54:24.731Z,39.95
2023-02-23T21:56:54.169Z,40.55
2023-02-23T21:59:24.057Z,38.90
2023-02-23T22:01:53.497Z,40.35
2023-02-23T22:04:22.998Z,37.53
2023-02-23T22:06:55.035Z,37.80
2023-02-23T22:09:24.483Z,36.72
2023-02-23T22:11:53.914Z,34.28
2023-02-23T22:14:23.891Z,34.40
2023-02-23T22:16:53.453Z,34.55
2023-02-23T22:19:23.041Z,36.75
2023-02-23T22:21:55.183Z,35.75
2023-02-23T22:24:24.607Z,37.28
2023-02-23T22:26:55.117Z,31.40
2023-02-23T22:29:24.827Z,33.55
2023-02-23T22:31:55.433Z,34.30
2023-02-23T22:34:25.065Z,30.63
2023-02-23T22:36:57.058Z,30.45
2023-02-23T22:39:26.611Z,29.13
2023-02-23T22:41:56.056Z,27.95
2023-02-23T22:44:25.502Z,24.70
2023-02-23T22:46:55.070Z,24.85
2023-02-23T22:49:24.947Z,25.08
2023-02-23T22:51:57.091Z,25.42
2023-02-23T22:54:26.641Z,27.05
2023-02-23T22:56:56.086Z,27.77
2023-02-23T22:59:25.614Z,25.88
2023-02-23T23:01:56.516Z,28.17
2023-02-23T23:04:27.012Z,25.83
2023-02-23T23:06:59.099Z,26.25
2023-02-23T23:09:31.481Z,26.20
2023-02-23T23:12:00.977Z,28.73
2023-02-23T23:14:32.676Z,25.35
2023-02-23T23:17:02.250Z,26.98
2023-02-23T23:19:38.962Z,26.85
2023-02-23T23:22:14.512Z,28.25
2023-02-23T23:24:46.263Z,26.27
2023-02-23T23:27:19.798Z,26.17
2023-02-23T23:29:49.349Z,28.70
2023-02-23T23:32:27.520Z,27.63
2023-02-23T23:35:00.008Z,27.92
2023-02-23T23:37:32.056Z,27.20
2023-02-23T23:40:05.197Z,28.42
2023-02-23T23:42:34.895Z,27.52
2023-02-23T23:45:06.339Z,29.27
2023-02-23T23:47:35.803Z,28.55
2023-02-23T23:50:10.872Z,28.67
2023-02-23T23:52:44.137Z,29.00
2023-02-23T23:55:14.759Z,27.95
2023-02-23T23:57:44.384Z,30.70
